createdAt,value
2018-08-23T07:56:22.045Z,25.93
2018-08-23T07:59:27.825Z,25.00
2018-08-23T08:02:33.375Z,22.87
2018-08-23T08:05:41.298Z,22.60
2018-08-23T08:08:46.933Z,23.17
2018-08-23T08:11:57.893Z,23.43
2018-08-23T08:15:03.504Z,19.67
2018-08-23T08:18:22.880Z,21.13
2018-08-23T08:21:28.325Z,21.93
2018-08-23T08:24:33.722Z,24.17
2018-08-23T08:27:39.863Z,25.00
2018-08-23T08:30:46.986Z,21.93
2018-08-23T08:33:56.782Z,21.83
2018-08-23T08:37:02.151Z,21.27
2018-08-23T08:40:12.262Z,21.13
2018-08-23T08:43:17.856Z,22.53
2018-08-23T08:46:23.334Z,23.27
2018-08-23T08:49:31.417Z,25.17
2018-08-23T08:52:37.094Z,24.20
2018-08-23T08:55:45.161Z,24.70
2018-08-23T08:58:52.054Z,24.90
2018-08-23T09:01:57.637Z,23.40
2018-08-23T09:05:03.082Z,22.93
2018-08-23T09:08:08.473Z,23.57
2018-08-23T09:11:13.874Z,24.23
2018-08-23T09:14:21.283Z,22.70
2018-08-23T09:17:40.998Z,25.23
2018-08-23T09:20:46.489Z,21.90
2018-08-23T09:23:52.906Z,23.00
2018-08-23T09:26:58.275Z,23.17
2018-08-23T09:30:03.714Z,22.43
2018-08-23T09:33:10.775Z,22.40
2018-08-23T09:36:16.325Z,23.90
2018-08-23T09:39:21.721Z,23.07
2018-08-23T09:42:31.237Z,20.77
2018-08-23T09:45:37.542Z,18.13
2018-08-23T09:48:42.998Z,19.10
2018-08-23T09:51:48.375Z,20.70
2018-08-23T09:54:53.790Z,19.93
2018-08-23T09:57:59.611Z,15.93
2018-08-23T10:01:10.114Z,19.00
2018-08-23T10:04:21.021Z,17.73
2018-08-23T10:07:31.883Z,17.30
2018-08-23T10:10:42.425Z,19.07
2018-08-23T10:13:53.208Z,19.40
2018-08-23T10:17:03.642Z,19.70
2018-08-23T10:20:14.281Z,18.73
2018-08-23T10:23:23.045Z,18.87
2018-08-23T10:26:33.927Z,21.03
2018-08-23T10:29:39.478Z,18.43
2018-08-23T10:32:44.860Z,17.73
2018-08-23T10:35:53.435Z,16.57
2018-08-23T10:38:58.786Z,19.43
2018-08-23T10:42:06.625Z,19.77
2018-08-23T10:45:12.350Z,18.57
2018-08-23T10:48:19.506Z,17.37
2018-08-23T10:51:24.927Z,17.70
2018-08-23T10:54:30.350Z,17.23
2018-08-23T10:57:36.230Z,18.13
2018-08-23T11:00:42.170Z,17.73
2018-08-23T11:03:47.648Z,14.73
2018-08-23T11:07:00.170Z,13.30
2018-08-23T11:10:10.958Z,14.63
2018-08-23T11:13:21.794Z,17.20
2018-08-23T11:16:32.280Z,14.80
2018-08-23T11:19:42.808Z,15.23
2018-08-23T11:22:48.321Z,16.87
2018-08-23T11:25:53.790Z,21.00
2018-08-23T11:28:59.182Z,19.57
2018-08-23T11:32:04.653Z,20.43
2018-08-23T11:35:10.332Z,16.53
2018-08-23T11:38:16.570Z,16.43
2018-08-23T11:41:22.722Z,16.67
2018-08-23T11:44:28.284Z,16.80
2018-08-23T11:47:33.738Z,15.10
2018-08-23T11:50:39.469Z,12.97
2018-08-23T11:53:45.513Z,18.70
2018-08-23T11:56:51.100Z,16.43
2018-08-23T11:59:56.462Z,13.17
2018-08-23T12:03:01.846Z,14.90
2018-08-23T12:06:08.298Z,16.80
2018-08-23T12:09:13.690Z,14.87
2018-08-23T12:12:19.390Z,18.30
2018-08-23T12:15:32.996Z,17.47
2018-08-23T12:18:39.259Z,18.07
2018-08-23T12:21:44.655Z,16.97
2018-08-23T12:24:50.107Z,19.27
2018-08-23T12:28:00.762Z,15.60
2018-08-23T12:31:06.194Z,17.93
2018-08-23T12:34:11.615Z,16.77
2018-08-23T12:37:22.298Z,16.43
2018-08-23T12:40:34.515Z,19.93
2018-08-23T12:43:46.888Z,17.03
2018-08-23T12:46:56.442Z,20.77
2018-08-23T12:50:03.910Z,20.87
2018-08-23T12:53:09.343Z,19.67
2018-08-23T12:56:14.773Z,15.20
2018-08-23T12:59:20.398Z,16.90
2018-08-23T13:02:26.035Z,14.27
2018-08-23T13:05:31.610Z,14.93
2018-08-23T13:08:37.006Z,14.13
2018-08-23T13:11:42.427Z,13.70
2018-08-23T13:14:47.825Z,13.80
2018-08-23T13:17:53.691Z,11.93
2018-08-23T13:20:59.208Z,11.50
2018-08-23T13:24:05.137Z,12.87
2018-08-23T13:27:10.574Z,13.47
2018-08-23T13:30:16.033Z,11.07
2018-08-23T13:33:21.820Z,11.27
2018-08-23T13:36:27.299Z,10.27
2018-08-23T13:39:32.786Z,12.07
2018-08-23T13:42:38.301Z,10.70
2018-08-23T13:45:43.898Z,10.87
2018-08-23T13:48:49.274Z,9.87
2018-08-23T13:51:54.652Z,9.50
2018-08-23T13:55:00.135Z,9.63
2018-08-23T13:58:05.529Z,10.77
2018-08-23T14:01:10.930Z,10.47
2018-08-23T14:04:16.474Z,9.37
2018-08-23T14:07:21.985Z,9.67
2018-08-23T14:10:27.580Z,7.60
2018-08-23T14:13:33.077Z,9.07
2018-08-23T14:16:38.465Z,8.40
2018-08-23T14:19:44.655Z,9.23
2018-08-23T14:22:50.223Z,10.40
2018-08-23T14:25:56.258Z,8.83
2018-08-23T14:29:01.719Z,11.87
2018-08-23T14:32:07.693Z,9.60
2018-08-23T14:35:13.149Z,8.83
2018-08-23T14:38:18.556Z,9.73
2018-08-23T14:41:24.324Z,12.93
2018-08-23T14:44:29.827Z,13.70
2018-08-23T14:47:40.270Z,14.83
2018-08-23T14:50:45.693Z,12.53
2018-08-23T14:53:51.311Z,11.13
2018-08-23T14:57:01.869Z,12.07
2018-08-23T15:00:07.462Z,10.87
2018-08-23T15:03:12.977Z,11.27
2018-08-23T15:06:18.362Z,11.40
2018-08-23T15:09:28.074Z,10.10
2018-08-23T15:12:33.481Z,11.50
2018-08-23T15:15:44.074Z,10.10
2018-08-23T15:18:49.426Z,10.60
2018-08-23T15:21:54.814Z,9.00
2018-08-23T15:25:01.292Z,9.63
2018-08-23T15:28:07.706Z,8.90
2018-08-23T15:31:13.113Z,8.13
2018-08-23T15:34:18.546Z,8.27
2018-08-23T15:37:23.958Z,6.93
2018-08-23T15:40:29.332Z,6.63
2018-08-23T15:43:34.862Z,7.63
2018-08-23T15:46:43.286Z,7.73
2018-08-23T15:49:48.636Z,8.13
2018-08-23T15:52:55.038Z,7.90
2018-08-23T15:56:00.473Z,6.57
2018-08-23T15:59:06.035Z,7.10
2018-08-23T16:02:11.406Z,5.70
2018-08-23T16:05:17.278Z,8.60
2018-08-23T16:08:22.874Z,8.67
2018-08-23T16:11:28.305Z,9.03
2018-08-23T16:14:33.688Z,9.03
2018-08-23T16:17:44.271Z,11.30
2018-08-23T16:20:54.346Z,14.67
2018-08-23T16:23:59.778Z,12.20
2018-08-23T16:27:06.351Z,12.97
2018-08-23T16:30:12.082Z,13.20
2018-08-23T16:33:17.582Z,12.37
2018-08-23T16:36:23.012Z,12.37
2018-08-23T16:39:28.912Z,12.10
2018-08-23T16:42:34.341Z,10.87
2018-08-23T16:45:39.709Z,13.33
2018-08-23T16:48:45.113Z,10.10
2018-08-23T16:51:50.774Z,9.73
2018-08-23T16:54:56.250Z,8.27
2018-08-23T16:58:01.616Z,9.50
2018-08-23T17:01:07.138Z,9.50
2018-08-23T17:04:12.580Z,11.20
2018-08-23T17:07:18.428Z,9.67
2018-08-23T17:10:23.773Z,10.70
2018-08-23T17:13:34.314Z,10.60
2018-08-23T17:16:45.366Z,11.37
2018-08-23T17:19:50.743Z,8.17
2018-08-23T17:22:56.146Z,8.77
2018-08-23T17:26:01.559Z,8.90
2018-08-23T17:29:06.949Z,11.10
2018-08-23T17:32:12.350Z,10.90
2018-08-23T17:35:17.757Z,9.97
2018-08-23T17:38:23.183Z,9.60
2018-08-23T17:41:28.794Z,11.10
2018-08-23T17:44:34.431Z,10.77
2018-08-23T17:47:39.834Z,11.20
2018-08-23T17:50:45.225Z,12.23
2018-08-23T17:53:50.777Z,12.03
2018-08-23T17:56:56.409Z,10.67
2018-08-23T18:00:01.782Z,12.00
2018-08-23T18:03:07.465Z,11.93
2018-08-23T18:06:12.872Z,9.90
2018-08-23T18:09:18.309Z,11.00
2018-08-23T18:12:23.701Z,10.83
2018-08-23T18:16:32.157Z,10.27
2018-08-23T18:19:37.547Z,10.77
2018-08-23T18:22:43.073Z,10.40
2018-08-23T18:25:48.556Z,10.33
2018-08-23T18:28:53.986Z,9.47
2018-08-23T18:32:02.081Z,9.63
2018-08-23T18:35:07.706Z,8.73
2018-08-23T18:38:13.333Z,8.83
2018-08-23T18:41:18.706Z,8.53
2018-08-23T18:44:24.142Z,8.83
2018-08-23T18:47:29.543Z,9.30
2018-08-23T18:50:34.910Z,8.30
2018-08-23T18:53:40.296Z,8.10
2018-08-23T18:56:45.657Z,8.97
2018-08-23T18:59:51.116Z,9.43
2018-08-23T19:02:56.682Z,8.70
2018-08-23T19:06:02.043Z,8.77
2018-08-23T19:09:13.754Z,9.00
2018-08-23T19:12:19.192Z,8.30
2018-08-23T19:15:29.746Z,8.57
2018-08-23T19:18:35.546Z,8.93
2018-08-23T19:21:41.093Z,8.93
2018-08-23T19:24:46.511Z,9.03
2018-08-23T19:27:51.894Z,11.03
2018-08-23T19:30:57.761Z,10.53
2018-08-23T19:34:03.342Z,9.90
2018-08-23T19:37:08.756Z,9.47
2018-08-23T19:40:14.322Z,9.70
2018-08-23T19:43:19.723Z,8.97
2018-08-23T19:46:31.757Z,9.60
2018-08-23T19:49:42.369Z,9.73
2018-08-23T19:52:47.750Z,10.60
2018-08-23T19:55:53.138Z,10.20
2018-08-23T19:58:58.506Z,9.90
2018-08-23T20:02:03.980Z,9.03
2018-08-23T20:05:09.397Z,9.37
2018-08-23T20:08:14.814Z,11.80
2018-08-23T20:11:20.194Z,8.90
2018-08-23T20:14:25.592Z,10.43
2018-08-23T20:17:30.954Z,9.87
2018-08-23T20:20:36.374Z,10.03
2018-08-23T20:23:41.903Z,9.47
2018-08-23T20:26:47.265Z,9.87
2018-08-23T20:29:52.645Z,10.20
2018-08-23T20:32:58.039Z,10.17
2018-08-23T20:36:03.446Z,9.77
2018-08-23T20:39:12.396Z,9.27
2018-08-23T20:42:17.983Z,10.97
2018-08-23T20:45:23.390Z,10.53
2018-08-23T20:48:28.807Z,10.20
2018-08-23T20:51:34.213Z,9.97
2018-08-23T20:54:39.735Z,10.00
2018-08-23T20:57:45.953Z,10.30
2018-08-23T21:00:51.341Z,13.03
2018-08-23T21:03:56.761Z,12.43
2018-08-23T21:07:02.137Z,12.67
2018-08-23T21:10:07.577Z,12.33
2018-08-23T21:13:13.001Z,12.57
2018-08-23T21:16:18.445Z,11.90
2018-08-23T21:19:23.833Z,12.63
2018-08-23T21:22:29.309Z,12.77
2018-08-23T21:25:34.698Z,12.40
2018-08-23T21:28:40.041Z,11.27
2018-08-23T21:31:45.417Z,11.23
2018-08-23T21:34:50.840Z,11.67
2018-08-23T21:37:56.259Z,11.83
2018-08-23T21:41:01.638Z,11.03
2018-08-23T21:44:07.111Z,10.97
2018-08-23T21:47:12.653Z,11.90
2018-08-23T21:50:18.510Z,11.57
2018-08-23T21:53:23.893Z,11.07
2018-08-23T21:56:29.278Z,11.33
2018-08-23T21:59:34.793Z,10.13
2018-08-23T22:02:40.613Z,10.80
2018-08-23T22:05:46.033Z,10.00
2018-08-23T22:08:51.451Z,9.50
2018-08-23T22:11:56.982Z,9.67
2018-08-23T22:15:02.478Z,10.40
2018-08-23T22:18:08.075Z,9.70
2018-08-23T22:21:13.483Z,9.63
2018-08-23T22:24:18.902Z,9.30
2018-08-23T22:27:24.331Z,8.37
2018-08-23T22:30:29.742Z,10.23
2018-08-23T22:33:35.496Z,9.83
2018-08-23T22:36:40.877Z,8.03
2018-08-23T22:39:46.247Z,8.90
2018-08-23T22:42:51.714Z,8.57
2018-08-23T22:45:57.151Z,11.17
2018-08-23T22:49:02.525Z,10.47
2018-08-23T22:52:07.934Z,8.73
2018-08-23T22:55:13.281Z,9.07
2018-08-23T22:58:18.668Z,11.73
2018-08-23T23:01:24.369Z,11.10
2018-08-23T23:04:30.026Z,9.90
2018-08-23T23:07:35.421Z,12.50
2018-08-23T23:10:41.058Z,12.67
2018-08-23T23:13:45.496Z,11.83
2018-08-23T23:16:54.127Z,11.37
2018-08-23T23:19:59.566Z,12.00
2018-08-23T23:23:05.053Z,12.20
2018-08-23T23:26:10.469Z,12.07
2018-08-23T23:29:15.937Z,10.80
2018-08-23T23:32:21.363Z,12.00
2018-08-23T23:35:26.724Z,10.83
2018-08-23T23:38:32.142Z,10.70
2018-08-23T23:41:37.690Z,12.83
2018-08-23T23:44:43.207Z,12.27
2018-08-23T23:47:48.741Z,11.53
2018-08-23T23:50:54.137Z,13.63
2018-08-23T23:53:59.606Z,13.67
2018-08-23T23:57:05.201Z,13.07
